McLain, Mississippi
Current Conditions -  °F | °C
As of 11:53 PM on Tuesday 25 Nov 2014 (Local Time) from KHBG Reporting Station
Clear Clear  
Wind Chill: 36°   Ceiling: Unl
Heat Index: 40°   Visibility: 10mi
Dew Point: 31°   Wind: 6mph
Humidity: 70%   Direction: 310°NW
Pressure: 30.2"   Gusts: NA
Location:  31.11°N, 88.83°W
Report Text: KHBG 260553Z AUTO 31005KT 10SM CLR 04/M01 A3020 RMK AO2 SLPNO T00441006 10106 20044 401390044 58004
Loading
Personal Weather Stations






























Interactive Weather Map New forecast layout! Learn more

10-Day Weather Forecast

Advertisements
Track Severe Weather on mobile